sensor_id;sensor_type;location;lat;lon;timestamp;pressure;altitude;pressure_sealevel;temperature;humidity
64230;BME280;50547;49.498;0.092;2023-07-20T00:00:43;1013.88;;;18.75;85.06
64230;BME280;50547;49.498;0.092;2023-07-20T00:03:13;1013.86;;;18.79;84.60
64230;BME280;50547;49.498;0.092;2023-07-20T00:05:43;1013.80;;;18.80;84.22
64230;BME280;50547;49.498;0.092;2023-07-20T00:08:12;1013.80;;;18.90;84.04
64230;BME280;50547;49.498;0.092;2023-07-20T00:10:41;1013.76;;;18.91;84.04
64230;BME280;50547;49.498;0.092;2023-07-20T00:13:11;1013.76;;;18.85;84.41
64230;BME280;50547;49.498;0.092;2023-07-20T00:15:40;1013.76;;;18.72;85.10
64230;BME280;50547;49.498;0.092;2023-07-20T00:18:09;1013.74;;;18.69;85.12
64230;BME280;50547;49.498;0.092;2023-07-20T00:20:38;1013.76;;;18.78;84.52
64230;BME280;50547;49.498;0.092;2023-07-20T00:23:07;1013.76;;;18.71;84.85
64230;BME280;50547;49.498;0.092;2023-07-20T00:25:36;1013.68;;;18.70;84.87
64230;BME280;50547;49.498;0.092;2023-07-20T00:28:05;1013.70;;;18.78;84.32
64230;BME280;50547;49.498;0.092;2023-07-20T00:30:34;1013.66;;;18.73;84.43
64230;BME280;50547;49.498;0.092;2023-07-20T00:33:03;1013.68;;;18.63;85.07
64230;BME280;50547;49.498;0.092;2023-07-20T00:35:32;1013.66;;;18.72;84.58
64230;BME280;50547;49.498;0.092;2023-07-20T00:38:01;1013.60;;;18.73;84.87
64230;BME280;50547;49.498;0.092;2023-07-20T00:40:35;1013.60;;;18.83;84.51
64230;BME280;50547;49.498;0.092;2023-07-20T00:43:05;1013.56;;;18.85;84.30
64230;BME280;50547;49.498;0.092;2023-07-20T00:45:34;1013.60;;;18.87;84.31
64230;BME280;50547;49.498;0.092;2023-07-20T00:48:06;1013.56;;;18.82;84.37
64230;BME280;50547;49.498;0.092;2023-07-20T00:50:35;1013.58;;;18.83;84.23
64230;BME280;50547;49.498;0.092;2023-07-20T00:53:05;1013.54;;;18.84;84.20
64230;BME280;50547;49.498;0.092;2023-07-20T00:55:35;1013.56;;;18.74;84.45
64230;BME280;50547;49.498;0.092;2023-07-20T00:58:04;1013.54;;;18.72;84.58
64230;BME280;50547;49.498;0.092;2023-07-20T01:00:33;1013.56;;;18.73;84.48
64230;BME280;50547;49.498;0.092;2023-07-20T01:03:02;1013.54;;;18.61;84.71
64230;BME280;50547;49.498;0.092;2023-07-20T01:05:38;1013.52;;;18.68;84.42
64230;BME280;50547;49.498;0.092;2023-07-20T01:08:13;1013.50;;;18.74;83.99
64230;BME280;50547;49.498;0.092;2023-07-20T01:10:51;1013.46;;;18.69;84.54
64230;BME280;50547;49.498;0.092;2023-07-20T01:13:23;1013.50;;;18.75;84.15
64230;BME280;50547;49.498;0.092;2023-07-20T01:15:57;1013.39;;;18.70;84.16
64230;BME280;50547;49.498;0.092;2023-07-20T01:20:41;1013.46;;;18.83;83.73
64230;BME280;50547;49.498;0.092;2023-07-20T01:23:31;1013.41;;;18.67;84.59
64230;BME280;50547;49.498;0.092;2023-07-20T01:26:11;1013.33;;;18.62;84.54
64230;BME280;50547;49.498;0.092;2023-07-20T01:29:04;1013.33;;;18.68;84.51
64230;BME280;50547;49.498;0.092;2023-07-20T01:31:41;1013.37;;;18.75;83.74
64230;BME280;50547;49.498;0.092;2023-07-20T01:34:12;1013.29;;;18.65;84.44
64230;BME280;50547;49.498;0.092;2023-07-20T01:36:46;1013.33;;;18.51;84.68
64230;BME280;50547;49.498;0.092;2023-07-20T01:39:17;1013.29;;;18.54;84.51
64230;BME280;50547;49.498;0.092;2023-07-20T01:41:47;1013.25;;;18.47;84.78
64230;BME280;50547;49.498;0.092;2023-07-20T01:44:16;1013.31;;;18.41;85.05
64230;BME280;50547;49.498;0.092;2023-07-20T01:46:45;1013.23;;;18.47;85.08
64230;BME280;50547;49.498;0.092;2023-07-20T01:49:14;1013.21;;;18.53;84.81
64230;BME280;50547;49.498;0.092;2023-07-20T01:51:43;1013.10;;;18.41;85.43
64230;BME280;50547;49.498;0.092;2023-07-20T01:54:12;1013.12;;;18.38;85.00
64230;BME280;50547;49.498;0.092;2023-07-20T01:56:41;1013.12;;;18.37;84.90
64230;BME280;50547;49.498;0.092;2023-07-20T01:59:10;1013.10;;;18.39;84.98
64230;BME280;50547;49.498;0.092;2023-07-20T02:01:39;1013.23;;;18.30;85.65
64230;BME280;50547;49.498;0.092;2023-07-20T02:04:08;1013.23;;;18.29;85.87
64230;BME280;50547;49.498;0.092;2023-07-20T02:06:37;1013.10;;;18.31;85.96
64230;BME280;50547;49.498;0.092;2023-07-20T02:09:06;1013.10;;;18.28;85.70
64230;BME280;50547;49.498;0.092;2023-07-20T02:11:35;1013.05;;;18.35;85.52
64230;BME280;50547;49.498;0.092;2023-07-20T02:14:04;1013.05;;;18.33;85.66
64230;BME280;50547;49.498;0.092;2023-07-20T02:16:33;1013.03;;;18.28;85.79
64230;BME280;50547;49.498;0.092;2023-07-20T02:19:02;1013.01;;;18.41;85.39
64230;BME280;50547;49.498;0.092;2023-07-20T02:21:31;1013.01;;;18.41;85.41
64230;BME280;50547;49.498;0.092;2023-07-20T02:24:00;1012.93;;;18.37;85.82
64230;BME280;50547;49.498;0.092;2023-07-20T02:26:29;1012.89;;;18.25;85.86
64230;BME280;50547;49.498;0.092;2023-07-20T02:28:58;1012.89;;;18.23;85.99
64230;BME280;50547;49.498;0.092;2023-07-20T02:31:27;1012.89;;;18.31;85.82
64230;BME280;50547;49.498;0.092;2023-07-20T02:33:56;1012.85;;;18.23;85.97
64230;BME280;50547;49.498;0.092;2023-07-20T02:36:25;1012.85;;;18.17;86.36
64230;BME280;50547;49.498;0.092;2023-07-20T02:38:54;1012.85;;;18.17;86.36
64230;BME280;50547;49.498;0.092;2023-07-20T02:41:23;1012.83;;;18.25;85.90
64230;BME280;50547;49.498;0.092;2023-07-20T02:43:52;1012.77;;;18.33;85.84
64230;BME280;50547;49.498;0.092;2023-07-20T02:46:21;1012.75;;;18.43;85.48
64230;BME280;50547;49.498;0.092;2023-07-20T02:48:50;1012.73;;;18.38;85.59
64230;BME280;50547;49.498;0.092;2023-07-20T02:51:19;1012.71;;;18.22;86.48
64230;BME280;50547;49.498;0.092;2023-07-20T02:53:48;1012.77;;;18.22;86.60
64230;BME280;50547;49.498;0.092;2023-07-20T02:56:17;1012.75;;;18.16;86.69
64230;BME280;50547;49.498;0.092;2023-07-20T02:58:46;1012.75;;;18.32;85.96
64230;BME280;50547;49.498;0.092;2023-07-20T03:01:15;1012.75;;;18.23;86.16
64230;BME280;50547;49.498;0.092;2023-07-20T03:03:44;1012.73;;;18.23;86.00
64230;BME280;50547;49.498;0.092;2023-07-20T03:06:13;1012.71;;;18.20;86.44
64230;BME280;50547;49.498;0.092;2023-07-20T03:08:43;1012.67;;;18.19;86.35
64230;BME280;50547;49.498;0.092;2023-07-20T03:11:12;1012.67;;;18.22;86.36
64230;BME280;50547;49.498;0.092;2023-07-20T03:13:41;1012.69;;;18.23;86.05
64230;BME280;50547;49.498;0.092;2023-07-20T03:16:11;1012.73;;;18.16;86.27
64230;BME280;50547;49.498;0.092;2023-07-20T03:18:40;1012.75;;;18.27;85.79
64230;BME280;50547;49.498;0.092;2023-07-20T03:21:10;1012.77;;;18.33;85.62
64230;BME280;50547;49.498;0.092;2023-07-20T03:23:40;1012.83;;;18.38;85.33
64230;BME280;50547;49.498;0.092;2023-07-20T03:26:09;1012.75;;;18.22;85.28
64230;BME280;50547;49.498;0.092;2023-07-20T03:28:38;1012.75;;;18.26;85.09
64230;BME280;50547;49.498;0.092;2023-07-20T03:31:08;1012.77;;;18.47;84.16
64230;BME280;50547;49.498;0.092;2023-07-20T03:33:37;1012.75;;;18.46;84.27
64230;BME280;50547;49.498;0.092;2023-07-20T03:36:06;1012.73;;;18.40;84.69
64230;BME280;50547;49.498;0.092;2023-07-20T03:38:35;1012.77;;;18.38;84.76
64230;BME280;50547;49.498;0.092;2023-07-20T03:41:04;1012.75;;;18.29;84.68
64230;BME280;50547;49.498;0.092;2023-07-20T03:43:33;1012.71;;;18.34;84.31
64230;BME280;50547;49.498;0.092;2023-07-20T03:46:02;1012.75;;;18.38;84.39
64230;BME280;50547;49.498;0.092;2023-07-20T03:48:28;1012.77;;;18.31;84.62
64230;BME280;50547;49.498;0.092;2023-07-20T03:50:57;1012.77;;;18.41;84.19
64230;BME280;50547;49.498;0.092;2023-07-20T03:53:27;1012.77;;;18.44;84.11
64230;BME280;50547;49.498;0.092;2023-07-20T03:55:56;1012.79;;;18.52;83.79
64230;BME280;50547;49.498;0.092;2023-07-20T03:58:25;1012.81;;;18.56;83.70
64230;BME280;50547;49.498;0.092;2023-07-20T04:00:54;1012.77;;;18.53;83.69
64230;BME280;50547;49.498;0.092;2023-07-20T04:03:23;1012.81;;;18.70;83.02
64230;BME280;50547;49.498;0.092;2023-07-20T04:05:53;1012.83;;;18.72;83.25
64230;BME280;50547;49.498;0.092;2023-07-20T04:08:23;1012.81;;;18.82;82.48
64230;BME280;50547;49.498;0.092;2023-07-20T04:10:52;1012.83;;;18.78;82.58
64230;BME280;50547;49.498;0.092;2023-07-20T04:13:22;1012.87;;;18.71;83.03
64230;BME280;50547;49.498;0.092;2023-07-20T04:15:51;1012.85;;;18.85;82.49
64230;BME280;50547;49.498;0.092;2023-07-20T04:18:20;1012.85;;;18.95;81.70
64230;BME280;50547;49.498;0.092;2023-07-20T04:20:49;1012.83;;;18.88;82.08
64230;BME280;50547;49.498;0.092;2023-07-20T04:23:18;1012.81;;;18.90;81.87
64230;BME280;50547;49.498;0.092;2023-07-20T04:25:47;1012.83;;;18.95;81.67
64230;BME280;50547;49.498;0.092;2023-07-20T04:28:16;1012.81;;;19.09;81.14
64230;BME280;50547;49.498;0.092;2023-07-20T04:30:45;1012.81;;;19.09;81.52
64230;BME280;50547;49.498;0.092;2023-07-20T04:33:14;1012.85;;;19.01;81.83
64230;BME280;50547;49.498;0.092;2023-07-20T04:35:48;1012.85;;;19.05;81.52
64230;BME280;50547;49.498;0.092;2023-07-20T04:38:18;1012.87;;;18.98;81.47
64230;BME280;50547;49.498;0.092;2023-07-20T04:40:48;1012.89;;;18.95;81.63
64230;BME280;50547;49.498;0.092;2023-07-20T04:43:18;1012.85;;;18.83;81.86
64230;BME280;50547;49.498;0.092;2023-07-20T04:45:47;1012.83;;;18.79;82.00
64230;BME280;50547;49.498;0.092;2023-07-20T04:48:16;1012.85;;;18.90;81.04
64230;BME280;50547;49.498;0.092;2023-07-20T04:50:46;1012.87;;;18.89;80.99
64230;BME280;50547;49.498;0.092;2023-07-20T04:53:15;1012.89;;;18.91;80.87
64230;BME280;50547;49.498;0.092;2023-07-20T04:55:48;1012.89;;;18.98;80.52
64230;BME280;50547;49.498;0.092;2023-07-20T04:58:18;1012.85;;;19.02;80.38
64230;BME280;50547;49.498;0.092;2023-07-20T05:00:48;1012.77;;;19.08;80.29
64230;BME280;50547;49.498;0.092;2023-07-20T05:03:17;1012.81;;;19.20;79.98
64230;BME280;50547;49.498;0.092;2023-07-20T05:05:46;1012.77;;;19.17;79.87
64230;BME280;50547;49.498;0.092;2023-07-20T05:08:15;1012.79;;;19.01;81.12
64230;BME280;50547;49.498;0.092;2023-07-20T05:10:44;1012.81;;;18.84;83.81
64230;BME280;50547;49.498;0.092;2023-07-20T05:13:13;1012.79;;;18.85;83.46
64230;BME280;50547;49.498;0.092;2023-07-20T05:15:42;1012.89;;;18.81;83.72
64230;BME280;50547;49.498;0.092;2023-07-20T05:18:11;1012.85;;;18.63;84.53
64230;BME280;50547;49.498;0.092;2023-07-20T05:20:40;1012.85;;;18.54;85.21
64230;BME280;50547;49.498;0.092;2023-07-20T05:23:09;1012.85;;;18.52;85.08
64230;BME280;50547;49.498;0.092;2023-07-20T05:25:38;1012.89;;;18.55;84.90
64230;BME280;50547;49.498;0.092;2023-07-20T05:28:07;1012.87;;;18.56;84.64
64230;BME280;50547;49.498;0.092;2023-07-20T05:30:36;1012.85;;;18.54;85.02
64230;BME280;50547;49.498;0.092;2023-07-20T05:33:05;1012.87;;;18.43;85.36
64230;BME280;50547;49.498;0.092;2023-07-20T05:35:36;1012.89;;;18.41;85.31
64230;BME280;50547;49.498;0.092;2023-07-20T05:38:05;1012.93;;;18.24;86.06
64230;BME280;50547;49.498;0.092;2023-07-20T05:40:37;1012.89;;;18.33;85.27
64230;BME280;50547;49.498;0.092;2023-07-20T05:43:06;1012.93;;;18.32;85.22
64230;BME280;50547;49.498;0.092;2023-07-20T05:45:35;1012.95;;;18.15;85.88
64230;BME280;50547;49.498;0.092;2023-07-20T05:48:04;1012.89;;;18.12;86.06
64230;BME280;50547;49.498;0.092;2023-07-20T05:50:33;1012.93;;;18.09;85.94
64230;BME280;50547;49.498;0.092;2023-07-20T05:53:02;1012.91;;;18.21;85.35
64230;BME280;50547;49.498;0.092;2023-07-20T05:55:31;1012.93;;;18.32;84.56
64230;BME280;50547;49.498;0.092;2023-07-20T05:58:01;1012.87;;;18.32;84.84
64230;BME280;50547;49.498;0.092;2023-07-20T06:00:30;1012.85;;;18.37;84.65
64230;BME280;50547;49.498;0.092;2023-07-20T06:02:59;1012.87;;;18.57;83.75
64230;BME280;50547;49.498;0.092;2023-07-20T06:05:29;1012.85;;;18.70;83.15
64230;BME280;50547;49.498;0.092;2023-07-20T06:07:58;1012.89;;;18.78;82.93
64230;BME280;50547;49.498;0.092;2023-07-20T06:10:27;1012.89;;;18.75;83.03
64230;BME280;50547;49.498;0.092;2023-07-20T06:12:56;1012.89;;;18.49;84.56
64230;BME280;50547;49.498;0.092;2023-07-20T06:15:27;1012.91;;;18.61;83.63
64230;BME280;50547;49.498;0.092;2023-07-20T06:17:56;1012.87;;;18.54;83.71
64230;BME280;50547;49.498;0.092;2023-07-20T06:20:25;1012.83;;;18.53;83.67
64230;BME280;50547;49.498;0.092;2023-07-20T06:22:54;1012.87;;;18.48;83.77
64230;BME280;50547;49.498;0.092;2023-07-20T06:25:23;1012.89;;;18.55;83.32
64230;BME280;50547;49.498;0.092;2023-07-20T06:27:51;1012.85;;;18.74;82.46
64230;BME280;50547;49.498;0.092;2023-07-20T06:30:20;1012.85;;;18.88;81.50
64230;BME280;50547;49.498;0.092;2023-07-20T06:32:49;1012.85;;;18.98;81.32
64230;BME280;50547;49.498;0.092;2023-07-20T06:35:18;1012.85;;;19.11;80.44
64230;BME280;50547;49.498;0.092;2023-07-20T06:37:47;1012.83;;;19.07;80.53
64230;BME280;50547;49.498;0.092;2023-07-20T06:40:16;1012.83;;;19.22;79.67
64230;BME280;50547;49.498;0.092;2023-07-20T06:45:34;1012.81;;;19.10;80.07
64230;BME280;50547;49.498;0.092;2023-07-20T06:48:03;1012.79;;;19.11;78.74
64230;BME280;50547;49.498;0.092;2023-07-20T06:50:32;1012.81;;;19.41;77.51
64230;BME280;50547;49.498;0.092;2023-07-20T06:53:01;1012.83;;;19.68;76.21
64230;BME280;50547;49.498;0.092;2023-07-20T06:55:31;1012.79;;;19.88;75.77
64230;BME280;50547;49.498;0.092;2023-07-20T06:58:00;1012.83;;;20.02;75.11
64230;BME280;50547;49.498;0.092;2023-07-20T07:00:29;1012.83;;;20.24;73.80
64230;BME280;50547;49.498;0.092;2023-07-20T07:02:58;1012.83;;;20.30;73.79
64230;BME280;50547;49.498;0.092;2023-07-20T07:05:27;1012.77;;;20.39;73.29
64230;BME280;50547;49.498;0.092;2023-07-20T07:07:56;1012.79;;;20.67;72.08
64230;BME280;50547;49.498;0.092;2023-07-20T07:10:24;1012.83;;;21.00;71.37
64230;BME280;50547;49.498;0.092;2023-07-20T07:12:53;1012.81;;;20.93;71.53
64230;BME280;50547;49.498;0.092;2023-07-20T07:15:22;1012.83;;;20.93;71.27
64230;BME280;50547;49.498;0.092;2023-07-20T07:17:51;1012.83;;;21.00;71.18
64230;BME280;50547;49.498;0.092;2023-07-20T07:20:20;1012.83;;;20.96;71.72
64230;BME280;50547;49.498;0.092;2023-07-20T07:22:50;1012.83;;;20.98;71.93
64230;BME280;50547;49.498;0.092;2023-07-20T07:25:19;1012.79;;;20.28;75.21
64230;BME280;50547;49.498;0.092;2023-07-20T07:27:48;1012.81;;;20.20;76.46
64230;BME280;50547;49.498;0.092;2023-07-20T07:30:17;1012.83;;;20.00;76.42
64230;BME280;50547;49.498;0.092;2023-07-20T07:32:46;1012.87;;;20.25;74.87
64230;BME280;50547;49.498;0.092;2023-07-20T07:35:15;1012.89;;;20.75;72.94
64230;BME280;50547;49.498;0.092;2023-07-20T07:38:10;1012.85;;;20.65;73.45
64230;BME280;50547;49.498;0.092;2023-07-20T07:40:39;1012.89;;;20.79;73.37
64230;BME280;50547;49.498;0.092;2023-07-20T07:43:08;1012.83;;;21.01;72.85
64230;BME280;50547;49.498;0.092;2023-07-20T07:45:37;1012.83;;;20.75;74.23
64230;BME280;50547;49.498;0.092;2023-07-20T07:48:06;1012.85;;;21.31;71.77
64230;BME280;50547;49.498;0.092;2023-07-20T07:50:35;1012.79;;;20.96;73.13
64230;BME280;50547;49.498;0.092;2023-07-20T07:53:04;1012.85;;;20.67;75.54
64230;BME280;50547;49.498;0.092;2023-07-20T07:55:33;1012.83;;;20.56;75.12
64230;BME280;50547;49.498;0.092;2023-07-20T07:58:03;1012.83;;;20.60;75.26
64230;BME280;50547;49.498;0.092;2023-07-20T08:00:30;1012.91;;;20.68;74.85
64230;BME280;50547;49.498;0.092;2023-07-20T08:02:59;1012.83;;;20.57;74.95
64230;BME280;50547;49.498;0.092;2023-07-20T08:05:28;1012.79;;;20.56;75.17
64230;BME280;50547;49.498;0.092;2023-07-20T08:07:57;1012.77;;;20.53;74.84
64230;BME280;50547;49.498;0.092;2023-07-20T08:10:27;1012.81;;;20.64;75.10
64230;BME280;50547;49.498;0.092;2023-07-20T08:12:56;1012.77;;;20.48;76.04
64230;BME280;50547;49.498;0.092;2023-07-20T08:15:25;1012.77;;;20.36;76.62
64230;BME280;50547;49.498;0.092;2023-07-20T08:17:54;1012.73;;;20.33;76.83
64230;BME280;50547;49.498;0.092;2023-07-20T08:20:23;1012.77;;;20.71;75.35
64230;BME280;50547;49.498;0.092;2023-07-20T08:22:52;1012.75;;;20.73;74.53
64230;BME280;50547;49.498;0.092;2023-07-20T08:25:21;1012.77;;;21.21;72.70
64230;BME280;50547;49.498;0.092;2023-07-20T08:27:51;1012.77;;;20.99;73.49
64230;BME280;50547;49.498;0.092;2023-07-20T08:30:21;1012.77;;;21.72;71.10
64230;BME280;50547;49.498;0.092;2023-07-20T08:32:50;1012.79;;;22.06;69.78
64230;BME280;50547;49.498;0.092;2023-07-20T08:35:29;1012.81;;;22.23;68.66
64230;BME280;50547;49.498;0.092;2023-07-20T08:37:58;1012.79;;;22.20;70.71
64230;BME280;50547;49.498;0.092;2023-07-20T08:40:27;1012.77;;;21.99;71.11
64230;BME280;50547;49.498;0.092;2023-07-20T08:42:54;1012.77;;;22.20;70.86
64230;BME280;50547;49.498;0.092;2023-07-20T08:45:26;1012.81;;;22.50;69.29
64230;BME280;50547;49.498;0.092;2023-07-20T08:47:56;1012.85;;;21.40;74.99
64230;BME280;50547;49.498;0.092;2023-07-20T08:50:27;1012.87;;;21.52;73.89
64230;BME280;50547;49.498;0.092;2023-07-20T08:52:58;1012.75;;;21.94;71.63
64230;BME280;50547;49.498;0.092;2023-07-20T08:55:27;1012.79;;;21.64;72.46
64230;BME280;50547;49.498;0.092;2023-07-20T08:57:58;1012.77;;;21.65;72.76
64230;BME280;50547;49.498;0.092;2023-07-20T09:00:28;1012.79;;;21.21;74.37
64230;BME280;50547;49.498;0.092;2023-07-20T09:02:57;1012.79;;;21.70;72.71
64230;BME280;50547;49.498;0.092;2023-07-20T09:05:27;1012.87;;;21.37;73.62
64230;BME280;50547;49.498;0.092;2023-07-20T09:07:56;1012.85;;;22.06;70.74
64230;BME280;50547;49.498;0.092;2023-07-20T09:10:25;1012.85;;;22.04;70.93
64230;BME280;50547;49.498;0.092;2023-07-20T09:12:54;1012.85;;;21.86;71.66
64230;BME280;50547;49.498;0.092;2023-07-20T09:15:23;1012.83;;;22.07;70.77
64230;BME280;50547;49.498;0.092;2023-07-20T09:17:50;1012.85;;;21.78;71.21
64230;BME280;50547;49.498;0.092;2023-07-20T09:20:20;1012.87;;;22.00;71.24
64230;BME280;50547;49.498;0.092;2023-07-20T09:22:51;1012.85;;;21.73;72.71
64230;BME280;50547;49.498;0.092;2023-07-20T09:25:20;1012.83;;;21.73;72.06
64230;BME280;50547;49.498;0.092;2023-07-20T09:27:49;1012.79;;;21.93;71.17
64230;BME280;50547;49.498;0.092;2023-07-20T09:30:19;1012.83;;;21.81;71.79
64230;BME280;50547;49.498;0.092;2023-07-20T09:32:53;1012.75;;;22.15;70.44
64230;BME280;50547;49.498;0.092;2023-07-20T09:35:22;1012.85;;;22.86;67.45
64230;BME280;50547;49.498;0.092;2023-07-20T09:37:54;1012.81;;;23.01;67.38
64230;BME280;50547;49.498;0.092;2023-07-20T09:40:24;1012.81;;;23.01;68.01
64230;BME280;50547;49.498;0.092;2023-07-20T09:42:54;1012.79;;;22.97;67.53
64230;BME280;50547;49.498;0.092;2023-07-20T09:45:24;1012.79;;;23.29;67.19
64230;BME280;50547;49.498;0.092;2023-07-20T09:48:03;1012.75;;;23.10;68.26
64230;BME280;50547;49.498;0.092;2023-07-20T09:50:32;1012.75;;;23.20;67.07
64230;BME280;50547;49.498;0.092;2023-07-20T09:53:02;1012.73;;;23.46;65.90
64230;BME280;50547;49.498;0.092;2023-07-20T09:55:31;1012.75;;;23.50;66.17
64230;BME280;50547;49.498;0.092;2023-07-20T09:58:02;1012.79;;;23.19;67.40
64230;BME280;50547;49.498;0.092;2023-07-20T10:00:31;1012.79;;;23.58;66.19
64230;BME280;50547;49.498;0.092;2023-07-20T10:03:02;1012.77;;;23.46;66.79
64230;BME280;50547;49.498;0.092;2023-07-20T10:05:33;1012.75;;;23.95;64.93
64230;BME280;50547;49.498;0.092;2023-07-20T10:08:04;1012.75;;;24.13;64.49
64230;BME280;50547;49.498;0.092;2023-07-20T10:10:38;1012.69;;;24.08;64.75
64230;BME280;50547;49.498;0.092;2023-07-20T10:13:14;1012.75;;;23.80;65.58
64230;BME280;50547;49.498;0.092;2023-07-20T10:15:49;1012.75;;;23.75;66.21
64230;BME280;50547;49.498;0.092;2023-07-20T10:18:24;1012.77;;;23.60;66.34
64230;BME280;50547;49.498;0.092;2023-07-20T10:20:55;1012.79;;;23.53;66.94
64230;BME280;50547;49.498;0.092;2023-07-20T10:23:21;1012.77;;;23.88;65.46
64230;BME280;50547;49.498;0.092;2023-07-20T10:25:51;1012.71;;;24.05;64.89
64230;BME280;50547;49.498;0.092;2023-07-20T10:28:21;1012.73;;;24.18;64.08
64230;BME280;50547;49.498;0.092;2023-07-20T10:30:51;1012.75;;;24.23;64.07
64230;BME280;50547;49.498;0.092;2023-07-20T10:33:20;1012.77;;;24.10;65.22
64230;BME280;50547;49.498;0.092;2023-07-20T10:35:51;1012.73;;;24.41;64.03
64230;BME280;50547;49.498;0.092;2023-07-20T10:38:39;1012.67;;;24.54;63.20
64230;BME280;50547;49.498;0.092;2023-07-20T10:41:28;1012.67;;;24.53;64.22
64230;BME280;50547;49.498;0.092;2023-07-20T10:44:00;1012.65;;;24.30;65.13
64230;BME280;50547;49.498;0.092;2023-07-20T10:46:45;1012.65;;;24.36;64.32
64230;BME280;50547;49.498;0.092;2023-07-20T10:49:15;1012.61;;;24.19;65.15
64230;BME280;50547;49.498;0.092;2023-07-20T10:51:46;1012.58;;;24.09;65.88
64230;BME280;50547;49.498;0.092;2023-07-20T10:54:47;1012.56;;;24.26;64.70
64230;BME280;50547;49.498;0.092;2023-07-20T10:57:29;1012.61;;;23.94;66.18
64230;BME280;50547;49.498;0.092;2023-07-20T11:00:14;1012.58;;;23.91;67.20
64230;BME280;50547;49.498;0.092;2023-07-20T11:02:45;1012.58;;;23.35;68.84
64230;BME280;50547;49.498;0.092;2023-07-20T11:05:33;1012.59;;;23.72;67.55
64230;BME280;50547;49.498;0.092;2023-07-20T11:08:05;1012.56;;;23.34;68.44
64230;BME280;50547;49.498;0.092;2023-07-20T11:10:34;1012.52;;;22.77;71.42
64230;BME280;50547;49.498;0.092;2023-07-20T11:13:20;1012.52;;;22.60;72.14
64230;BME280;50547;49.498;0.092;2023-07-20T11:16:02;1012.50;;;22.85;70.38
64230;BME280;50547;49.498;0.092;2023-07-20T11:18:34;1012.46;;;22.93;68.51
64230;BME280;50547;49.498;0.092;2023-07-20T11:21:03;1012.44;;;22.74;68.97
64230;BME280;50547;49.498;0.092;2023-07-20T11:23:38;1012.44;;;22.74;68.85
64230;BME280;50547;49.498;0.092;2023-07-20T11:26:07;1012.34;;;22.61;68.63
64230;BME280;50547;49.498;0.092;2023-07-20T11:28:36;1012.40;;;22.22;70.05
64230;BME280;50547;49.498;0.092;2023-07-20T11:31:05;1012.38;;;21.99;70.65
64230;BME280;50547;49.498;0.092;2023-07-20T11:33:34;1012.30;;;21.87;70.23
64230;BME280;50547;49.498;0.092;2023-07-20T11:36:04;1012.32;;;22.07;69.53
64230;BME280;50547;49.498;0.092;2023-07-20T11:38:33;1012.26;;;21.62;72.06
64230;BME280;50547;49.498;0.092;2023-07-20T11:41:02;1012.24;;;21.78;71.84
64230;BME280;50547;49.498;0.092;2023-07-20T11:43:31;1012.28;;;22.02;68.29
64230;BME280;50547;49.498;0.092;2023-07-20T11:46:00;1012.24;;;22.18;69.04
64230;BME280;50547;49.498;0.092;2023-07-20T11:48:29;1012.26;;;22.02;69.51
64230;BME280;50547;49.498;0.092;2023-07-20T11:50:58;1012.26;;;22.01;69.98
64230;BME280;50547;49.498;0.092;2023-07-20T11:53:28;1012.20;;;21.80;70.56
64230;BME280;50547;49.498;0.092;2023-07-20T11:55:57;1012.20;;;21.71;70.05
64230;BME280;50547;49.498;0.092;2023-07-20T11:58:27;1012.22;;;21.68;69.53
64230;BME280;50547;49.498;0.092;2023-07-20T12:00:57;1012.28;;;21.93;69.43
64230;BME280;50547;49.498;0.092;2023-07-20T12:03:27;1012.26;;;22.00;69.77
64230;BME280;50547;49.498;0.092;2023-07-20T12:05:56;1012.22;;;21.88;69.66
64230;BME280;50547;49.498;0.092;2023-07-20T12:08:35;1012.24;;;21.77;70.28
64230;BME280;50547;49.498;0.092;2023-07-20T12:11:07;1012.16;;;21.90;69.62
64230;BME280;50547;49.498;0.092;2023-07-20T12:13:37;1012.26;;;21.52;68.85
64230;BME280;50547;49.498;0.092;2023-07-20T12:16:08;1012.12;;;21.69;69.34
64230;BME280;50547;49.498;0.092;2023-07-20T12:18:38;1012.18;;;22.25;66.58
64230;BME280;50547;49.498;0.092;2023-07-20T12:21:07;1012.14;;;22.14;66.20
64230;BME280;50547;49.498;0.092;2023-07-20T12:23:38;1012.16;;;22.27;66.09
64230;BME280;50547;49.498;0.092;2023-07-20T12:26:07;1012.14;;;22.25;66.12
64230;BME280;50547;49.498;0.092;2023-07-20T12:28:40;1012.14;;;22.64;63.18
64230;BME280;50547;49.498;0.092;2023-07-20T12:31:10;1012.16;;;22.60;65.05
64230;BME280;50547;49.498;0.092;2023-07-20T12:33:39;1012.18;;;22.51;65.12
64230;BME280;50547;49.498;0.092;2023-07-20T12:36:08;1012.16;;;22.40;65.79
64230;BME280;50547;49.498;0.092;2023-07-20T12:38:37;1012.11;;;22.64;64.32
64230;BME280;50547;49.498;0.092;2023-07-20T12:41:07;1012.12;;;22.77;64.10
64230;BME280;50547;49.498;0.092;2023-07-20T12:43:36;1012.09;;;22.74;65.00
64230;BME280;50547;49.498;0.092;2023-07-20T12:46:05;1012.09;;;22.78;64.57
64230;BME280;50547;49.498;0.092;2023-07-20T12:48:36;1012.11;;;22.85;63.49
64230;BME280;50547;49.498;0.092;2023-07-20T12:51:06;1012.07;;;22.83;63.10
64230;BME280;50547;49.498;0.092;2023-07-20T12:53:35;1012.01;;;22.91;62.39
64230;BME280;50547;49.498;0.092;2023-07-20T12:56:04;1012.01;;;23.18;62.08
64230;BME280;50547;49.498;0.092;2023-07-20T12:58:34;1011.97;;;22.58;64.52
64230;BME280;50547;49.498;0.092;2023-07-20T13:01:02;1011.97;;;22.51;63.89
64230;BME280;50547;49.498;0.092;2023-07-20T13:03:31;1012.03;;;22.42;62.79
64230;BME280;50547;49.498;0.092;2023-07-20T13:06:00;1012.01;;;21.26;67.89
64230;BME280;50547;49.498;0.092;2023-07-20T13:08:29;1012.03;;;21.32;66.47
64230;BME280;50547;49.498;0.092;2023-07-20T13:10:58;1012.05;;;20.74;64.37
64230;BME280;50547;49.498;0.092;2023-07-20T13:13:27;1011.99;;;20.62;65.79
64230;BME280;50547;49.498;0.092;2023-07-20T13:15:56;1011.97;;;20.95;64.83
64230;BME280;50547;49.498;0.092;2023-07-20T13:18:25;1011.93;;;20.67;66.49
64230;BME280;50547;49.498;0.092;2023-07-20T13:20:54;1011.91;;;20.42;66.68
64230;BME280;50547;49.498;0.092;2023-07-20T13:23:23;1011.85;;;20.49;65.61
64230;BME280;50547;49.498;0.092;2023-07-20T13:25:52;1011.87;;;20.57;66.81
64230;BME280;50547;49.498;0.092;2023-07-20T13:28:21;1011.87;;;20.90;64.79
64230;BME280;50547;49.498;0.092;2023-07-20T13:30:51;1011.71;;;20.92;63.89